Time;durP1;ratioP1;P1;durP2;ratioP2;P2;SDS_P1;SDS_P2;PMS_P1;PMS_P2;Temp;Humidity;BMP_temperature;BMP_pressure;BME280_temperature;BME280_humidity;BME280_pressure;Samples;Min_cycle;Max_cycle;Signal;HPM_P1;HPM_P2
2021/05/26 00:01:33;;;;;;;10.20;6.70;;;10.40;99.90;;;;;;4966748;28;20027;-70
2021/05/26 00:03:59;;;;;;;12.20;6.50;;;10.40;99.90;;;;;;4968796;28;20410;-70
2021/05/26 00:06:25;;;;;;;11.00;6.90;;;10.40;99.90;;;;;;4968260;28;20037;-70
2021/05/26 00:08:51;;;;;;;9.48;6.35;;;10.40;99.90;;;;;;4968832;28;20473;-71
2021/05/26 00:11:19;;;;;;;8.13;6.65;;;10.30;99.90;;;;;;4968638;28;20034;-70
2021/05/26 00:13:46;;;;;;;12.30;8.07;;;10.30;99.90;;;;;;4968252;28;20553;-71
2021/05/26 00:16:13;;;;;;;12.65;7.57;;;10.20;99.90;;;;;;4968442;28;20137;-70
2021/05/26 00:18:39;;;;;;;10.85;7.95;;;10.20;99.90;;;;;;4966586;28;20555;-70
2021/05/26 00:21:07;;;;;;;13.23;8.25;;;10.10;99.90;;;;;;4967919;28;20120;-70
2021/05/26 00:23:34;;;;;;;11.23;7.38;;;10.10;99.90;;;;;;4967722;28;20498;-70
2021/05/26 00:26:00;;;;;;;11.57;7.90;;;10.10;99.90;;;;;;4967191;28;20035;-70
2021/05/26 00:28:26;;;;;;;10.13;7.65;;;10.10;99.90;;;;;;4965865;28;20046;-71
2021/05/26 00:30:53;;;;;;;11.95;7.95;;;10.10;99.90;;;;;;4968518;28;20588;-70
2021/05/26 00:33:19;;;;;;;10.30;7.85;;;10.10;99.90;;;;;;4967504;28;20034;-70
2021/05/26 00:35:46;;;;;;;11.00;7.50;;;10.10;99.90;;;;;;4965967;28;20027;-71
2021/05/26 00:38:13;;;;;;;11.90;7.35;;;10.20;99.90;;;;;;4966709;28;20035;-71
2021/05/26 00:40:39;;;;;;;10.70;7.22;;;10.20;99.90;;;;;;4968087;28;20339;-70
2021/05/26 00:43:06;;;;;;;10.32;7.35;;;10.20;99.90;;;;;;4967075;28;20060;-70
2021/05/26 00:45:32;;;;;;;9.73;7.63;;;10.20;99.90;;;;;;4965558;28;20030;-70
2021/05/26 00:47:59;;;;;;;10.43;8.13;;;10.10;99.90;;;;;;4967885;28;20557;-70
2021/05/26 00:50:26;;;;;;;11.73;8.63;;;10.10;99.90;;;;;;4966332;28;20230;-70
2021/05/26 00:52:52;;;;;;;11.00;8.00;;;10.10;99.90;;;;;;4967465;28;20089;-70
2021/05/26 00:55:21;;;;;;;11.75;8.90;;;10.10;99.90;;;;;;4965842;28;20106;-70
2021/05/26 00:57:49;;;;;;;13.18;9.00;;;10.10;99.90;;;;;;4968873;28;20033;-70
2021/05/26 01:00:18;;;;;;;13.73;9.65;;;10.00;99.90;;;;;;4968471;28;20591;-70
2021/05/26 01:02:45;;;;;;;14.27;9.77;;;10.00;99.90;;;;;;4967906;28;20043;-70
2021/05/26 01:05:13;;;;;;;11.70;9.48;;;10.00;99.90;;;;;;4968177;28;20683;-70
2021/05/26 01:07:40;;;;;;;12.80;9.63;;;10.00;99.90;;;;;;4967280;28;20030;-70
2021/05/26 01:10:11;;;;;;;12.88;9.88;;;10.00;99.90;;;;;;4966178;28;20113;-70
2021/05/26 01:12:37;;;;;;;12.98;9.95;;;10.00;99.90;;;;;;4968492;28;20041;-70
2021/05/26 01:15:06;;;;;;;12.35;10.18;;;10.00;99.90;;;;;;4967358;28;20058;-70
2021/05/26 01:17:34;;;;;;;14.63;10.10;;;10.00;99.90;;;;;;4967792;28;20561;-70
2021/05/26 01:20:01;;;;;;;14.88;10.85;;;10.00;99.90;;;;;;4966308;28;20038;-70
2021/05/26 01:22:26;;;;;;;14.95;10.52;;;10.00;99.90;;;;;;4967940;28;20394;-70
2021/05/26 01:24:52;;;;;;;13.38;10.82;;;10.00;99.90;;;;;;4967104;28;20054;-70
2021/05/26 01:27:18;;;;;;;14.73;10.43;;;10.00;99.90;;;;;;4967870;28;20035;-70
2021/05/26 01:29:44;;;;;;;13.68;9.50;;;10.00;99.90;;;;;;4966005;28;20061;-71
2021/05/26 01:32:10;;;;;;;11.30;8.68;;;10.10;99.90;;;;;;4965723;28;20038;-70
2021/05/26 01:34:36;;;;;;;12.70;8.20;;;10.10;99.90;;;;;;4965977;28;20038;-70
2021/05/26 01:37:01;;;;;;;9.15;6.88;;;10.20;99.90;;;;;;4967381;28;20475;-70
2021/05/26 01:39:27;;;;;;;8.00;5.88;;;10.20;99.90;;;;;;4967270;28;20030;-70
2021/05/26 01:41:55;;;;;;;6.85;5.10;;;10.20;99.90;;;;;;4965949;28;20035;-70
2021/05/26 01:44:26;;;;;;;7.60;5.25;;;10.20;99.90;;;;;;4968691;28;20027;-70
2021/05/26 01:46:53;;;;;;;8.18;5.70;;;10.20;99.90;;;;;;4971028;28;20329;-68
2021/05/26 01:49:19;;;;;;;5.63;4.50;;;10.30;99.90;;;;;;4970175;28;20153;-68
2021/05/26 01:51:45;;;;;;;5.65;3.78;;;10.30;99.90;;;;;;4970961;28;20130;-68
2021/05/26 01:54:11;;;;;;;2.85;2.50;;;10.30;99.90;;;;;;4970956;28;20035;-68
2021/05/26 01:56:37;;;;;;;3.63;2.35;;;10.30;99.90;;;;;;4968592;28;20400;-68
2021/05/26 01:59:04;;;;;;;2.58;2.35;;;10.30;99.90;;;;;;4970236;28;20031;-68
2021/05/26 02:01:30;;;;;;;3.83;2.10;;;10.30;99.90;;;;;;4969139;28;20077;-68
2021/05/26 02:03:56;;;;;;;2.13;1.92;;;10.30;99.90;;;;;;4970480;28;20038;-68
2021/05/26 02:06:24;;;;;;;3.00;2.67;;;10.30;99.90;;;;;;4970674;28;20137;-68
2021/05/26 02:08:52;;;;;;;3.15;2.05;;;10.30;99.90;;;;;;4970184;28;20038;-68
2021/05/26 02:14:06;;;;;;;1.45;1.10;;;10.30;99.90;;;;;;4970874;28;20036;-70
2021/05/26 02:16:33;;;;;;;1.83;0.90;;;10.20;99.90;;;;;;4968402;28;20034;-70
2021/05/26 02:18:59;;;;;;;1.15;1.08;;;10.30;99.90;;;;;;4969718;28;20410;-70
2021/05/26 02:21:25;;;;;;;1.73;1.50;;;10.30;99.90;;;;;;4970091;28;20587;-70
2021/05/26 02:23:51;;;;;;;3.20;1.40;;;10.30;99.90;;;;;;4969612;28;20068;-70
2021/05/26 02:26:17;;;;;;;1.08;1.00;;;10.20;99.90;;;;;;4970395;28;20060;-70
2021/05/26 02:28:43;;;;;;;2.25;1.13;;;10.20;99.90;;;;;;4970766;28;20038;-70
2021/05/26 02:31:09;;;;;;;1.63;1.30;;;10.20;99.90;;;;;;4970477;28;20537;-70
2021/05/26 02:33:36;;;;;;;2.25;1.40;;;10.20;99.90;;;;;;4968833;28;20027;-71
2021/05/26 02:36:02;;;;;;;2.53;1.25;;;10.20;99.90;;;;;;4969516;28;20034;-70
2021/05/26 02:38:28;;;;;;;5.25;1.30;;;10.20;99.90;;;;;;4967798;28;20092;-70
2021/05/26 02:40:54;;;;;;;2.70;0.98;;;10.20;99.90;;;;;;4969656;28;20590;-70
2021/05/26 02:43:21;;;;;;;1.95;0.80;;;10.20;99.90;;;;;;4969981;28;20753;-70
2021/05/26 02:45:47;;;;;;;1.70;0.68;;;10.20;99.90;;;;;;4970502;28;20036;-70
2021/05/26 02:48:13;;;;;;;1.67;0.90;;;10.20;99.90;;;;;;4969715;28;20133;-70
2021/05/26 02:50:39;;;;;;;2.28;1.35;;;10.10;99.90;;;;;;4968557;28;20062;-70
2021/05/26 02:53:04;;;;;;;2.92;0.57;;;10.20;99.90;;;;;;4969779;28;20037;-70
2021/05/26 02:55:30;;;;;;;1.02;0.60;;;10.10;99.90;;;;;;4966654;28;20435;-70
2021/05/26 02:57:56;;;;;;;3.22;0.70;;;10.20;99.90;;;;;;4969608;28;20081;-70
2021/05/26 03:00:24;;;;;;;1.38;0.82;;;10.20;99.90;;;;;;4968435;28;20035;-71
2021/05/26 03:02:50;;;;;;;1.20;0.70;;;10.30;99.90;;;;;;4969697;28;20521;-70
2021/05/26 03:05:18;;;;;;;1.75;0.90;;;10.20;99.90;;;;;;4969119;28;20030;-71
2021/05/26 03:07:44;;;;;;;1.45;0.80;;;10.30;99.90;;;;;;4969835;28;20026;-71
2021/05/26 03:10:12;;;;;;;1.40;0.70;;;10.30;99.90;;;;;;4968158;28;20034;-70
2021/05/26 03:12:39;;;;;;;1.50;0.75;;;10.30;99.90;;;;;;4968974;28;20019;-70
2021/05/26 03:15:06;;;;;;;3.28;0.93;;;10.20;99.90;;;;;;4968918;28;20585;-71
2021/05/26 03:17:32;;;;;;;2.55;0.93;;;10.30;99.90;;;;;;4969261;28;20035;-71
2021/05/26 03:19:58;;;;;;;2.15;1.15;;;10.30;99.90;;;;;;4968639;28;20433;-71
2021/05/26 03:22:25;;;;;;;1.85;0.85;;;10.30;99.90;;;;;;4969540;28;20471;-70
2021/05/26 03:24:51;;;;;;;5.78;1.10;;;10.30;99.90;;;;;;4968166;28;20570;-70
2021/05/26 03:27:19;;;;;;;3.92;1.10;;;10.40;99.90;;;;;;4966743;28;20034;-70
2021/05/26 03:29:45;;;;;;;1.05;0.95;;;10.40;99.90;;;;;;4969338;28;20462;-70
2021/05/26 03:32:11;;;;;;;4.75;1.45;;;10.40;99.90;;;;;;4966277;28;20034;-70
2021/05/26 03:34:37;;;;;;;3.92;1.25;;;10.50;99.90;;;;;;4968056;28;20786;-70
2021/05/26 03:37:03;;;;;;;4.38;1.60;;;10.40;99.90;;;;;;4969151;28;20026;-71
2021/05/26 03:39:29;;;;;;;2.85;1.65;;;10.40;99.90;;;;;;4967629;28;20454;-68
2021/05/26 03:41:55;;;;;;;1.92;1.35;;;10.50;99.90;;;;;;4967739;28;20026;-68
2021/05/26 03:44:20;;;;;;;1.77;1.40;;;10.50;99.90;;;;;;4966896;28;20437;-68
2021/05/26 03:46:46;;;;;;;4.57;2.92;;;10.50;99.90;;;;;;4966541;28;20034;-69
2021/05/26 03:49:12;;;;;;;3.42;2.78;;;10.60;99.90;;;;;;4965625;28;20212;-68
2021/05/26 03:51:38;;;;;;;5.25;3.15;;;10.60;99.90;;;;;;4967279;28;20066;-68
2021/05/26 03:54:04;;;;;;;5.03;3.63;;;10.70;99.90;;;;;;4967862;28;20031;-68
2021/05/26 03:56:30;;;;;;;6.70;4.07;;;10.80;99.90;;;;;;4967398;28;20436;-68
2021/05/26 03:58:56;;;;;;;4.35;3.33;;;10.70;99.90;;;;;;4967440;28;20176;-69
2021/05/26 04:01:22;;;;;;;8.23;4.50;;;10.70;99.90;;;;;;4967786;28;20351;-68
2021/05/26 04:03:48;;;;;;;7.82;4.90;;;10.70;99.90;;;;;;4968009;28;20470;-68
2021/05/26 04:06:14;;;;;;;6.63;4.85;;;10.70;99.90;;;;;;4967870;28;20283;-70
2021/05/26 04:08:40;;;;;;;5.70;4.55;;;10.70;99.90;;;;;;4968486;28;20816;-70
2021/05/26 04:11:05;;;;;;;6.93;5.07;;;10.80;99.90;;;;;;4968558;28;20034;-70
2021/05/26 04:13:31;;;;;;;6.65;5.35;;;10.80;99.90;;;;;;4967400;28;20096;-71
2021/05/26 04:15:57;;;;;;;5.75;5.10;;;10.80;99.90;;;;;;4966969;28;20034;-71
2021/05/26 04:18:23;;;;;;;6.47;5.60;;;10.80;99.90;;;;;;4965643;28;20038;-71
2021/05/26 04:20:49;;;;;;;6.60;5.13;;;10.80;99.90;;;;;;4967363;28;20070;-69
2021/05/26 04:23:15;;;;;;;6.13;5.53;;;10.90;99.90;;;;;;4966952;28;20046;-69
2021/05/26 04:25:42;;;;;;;5.80;5.20;;;11.00;99.90;;;;;;4966761;28;20051;-69
2021/05/26 04:28:08;;;;;;;5.20;4.70;;;11.10;99.90;;;;;;4968081;28;20041;-69
2021/05/26 04:30:34;;;;;;;5.85;4.63;;;11.10;99.90;;;;;;4966908;28;20417;-69
2021/05/26 04:33:00;;;;;;;6.38;5.07;;;11.20;99.90;;;;;;4965525;28;20084;-71
2021/05/26 04:35:26;;;;;;;5.28;4.47;;;11.10;99.90;;;;;;4968094;28;20026;-69
2021/05/26 04:37:52;;;;;;;6.20;4.75;;;11.20;99.90;;;;;;4967509;28;20117;-69
2021/05/26 04:40:18;;;;;;;6.82;5.60;;;11.20;99.90;;;;;;4967354;28;20482;-71
2021/05/26 04:42:45;;;;;;;5.40;4.90;;;11.20;99.90;;;;;;4968507;28;20062;-69
2021/05/26 04:45:12;;;;;;;6.82;5.03;;;11.20;99.90;;;;;;4966687;28;20092;-69
2021/05/26 04:47:38;;;;;;;4.97;4.47;;;11.30;99.90;;;;;;4967335;28;20158;-69
2021/05/26 04:50:05;;;;;;;4.20;3.75;;;11.20;99.90;;;;;;4967974;28;20076;-69
2021/05/26 04:52:31;;;;;;;4.30;3.75;;;11.30;99.90;;;;;;4966720;28;20872;-68
2021/05/26 04:54:56;;;;;;;4.72;3.75;;;11.30;99.90;;;;;;4964545;28;20039;-70
2021/05/26 04:57:22;;;;;;;4.35;3.78;;;11.30;99.90;;;;;;4967939;28;20034;-70
2021/05/26 04:59:48;;;;;;;4.63;4.15;;;11.20;99.90;;;;;;4967781;28;20038;-70
2021/05/26 05:02:14;;;;;;;4.32;3.92;;;11.30;99.90;;;;;;4965518;28;20518;-70
2021/05/26 05:04:40;;;;;;;5.20;4.68;;;11.30;99.90;;;;;;4966178;28;20077;-70
2021/05/26 05:07:06;;;;;;;5.05;4.53;;;11.30;99.90;;;;;;4963146;28;20038;-70
2021/05/26 05:09:32;;;;;;;7.72;5.18;;;11.40;99.90;;;;;;4966461;28;20270;-69
2021/05/26 05:11:58;;;;;;;5.60;4.47;;;11.50;99.90;;;;;;4965765;28;20093;-70
2021/05/26 05:14:23;;;;;;;6.57;4.20;;;11.40;99.90;;;;;;4967073;28;20031;-70
2021/05/26 05:16:49;;;;;;;7.13;4.38;;;11.40;99.90;;;;;;4964023;28;20034;-70
2021/05/26 05:19:15;;;;;;;5.45;4.53;;;11.50;99.90;;;;;;4969675;28;20022;-70
2021/05/26 05:21:41;;;;;;;4.80;4.30;;;11.50;99.90;;;;;;4968808;28;20068;-70
2021/05/26 05:24:07;;;;;;;5.88;3.83;;;11.40;99.90;;;;;;4970532;28;20564;-70
2021/05/26 05:26:33;;;;;;;4.13;3.72;;;11.40;99.90;;;;;;4970483;28;20482;-70
2021/05/26 05:29:02;;;;;;;5.05;4.13;;;11.40;99.90;;;;;;4971493;28;20034;-70
2021/05/26 05:31:30;;;;;;;3.95;3.55;;;11.30;99.90;;;;;;4970972;28;20454;-70
2021/05/26 05:33:56;;;;;;;4.50;3.75;;;11.40;99.90;;;;;;4970539;28;20027;-70
2021/05/26 05:36:22;;;;;;;3.90;3.42;;;11.40;99.90;;;;;;4971525;28;20027;-70
2021/05/26 05:38:48;;;;;;;4.25;3.85;;;11.40;99.90;;;;;;4971303;28;20026;-70
2021/05/26 05:41:14;;;;;;;4.07;3.40;;;11.40;99.90;;;;;;4969152;28;20880;-70
2021/05/26 05:43:39;;;;;;;4.50;3.60;;;11.40;99.90;;;;;;4970732;28;20153;-70
2021/05/26 05:46:05;;;;;;;4.47;3.80;;;11.40;99.90;;;;;;4970815;28;20034;-70
2021/05/26 05:48:31;;;;;;;6.07;3.80;;;11.40;99.90;;;;;;4970420;28;20715;-70
2021/05/26 05:50:57;;;;;;;3.95;3.25;;;11.40;99.90;;;;;;4968100;28;20658;-70
2021/05/26 05:53:23;;;;;;;4.72;3.17;;;11.50;99.90;;;;;;4971242;28;20133;-70
2021/05/26 05:55:49;;;;;;;3.75;3.10;;;11.50;99.90;;;;;;4970115;28;20054;-70
2021/05/26 05:58:25;;;;;;;4.20;3.58;;;11.40;99.90;;;;;;4968793;28;20402;-70
2021/05/26 06:00:51;;;;;;;4.28;3.30;;;11.50;99.90;;;;;;4970056;28;20433;-71
2021/05/26 06:03:17;;;;;;;4.57;3.90;;;11.50;99.90;;;;;;4968702;28;20357;-71
2021/05/26 06:05:43;;;;;;;4.75;3.72;;;11.40;99.90;;;;;;4970164;28;20080;-71
2021/05/26 06:08:09;;;;;;;4.50;3.25;;;11.40;99.90;;;;;;4969824;28;20080;-71
2021/05/26 06:10:35;;;;;;;3.95;3.50;;;11.40;99.90;;;;;;4970739;28;20220;-71
2021/05/26 06:13:06;;;;;;;3.30;3.00;;;11.40;99.90;;;;;;4971162;28;20418;-71
2021/05/26 06:15:32;;;;;;;3.85;3.17;;;11.40;99.90;;;;;;4968008;28;20034;-71
2021/05/26 06:17:58;;;;;;;4.53;3.80;;;11.50;99.90;;;;;;4969585;28;20093;-71
2021/05/26 06:20:24;;;;;;;4.30;3.85;;;11.50;99.90;;;;;;4970312;28;20421;-71
2021/05/26 06:22:50;;;;;;;6.30;3.58;;;11.50;99.90;;;;;;4970111;28;20034;-71
2021/05/26 06:25:16;;;;;;;6.72;4.68;;;11.50;99.90;;;;;;4970414;28;20484;-71
2021/05/26 06:27:42;;;;;;;4.97;4.10;;;11.60;99.90;;;;;;4968691;28;20149;-71
2021/05/26 06:30:09;;;;;;;4.47;3.97;;;11.70;99.90;;;;;;4968773;28;20449;-71
2021/05/26 06:32:35;;;;;;;5.22;3.80;;;11.70;99.90;;;;;;4969370;28;20039;-71
2021/05/26 06:35:01;;;;;;;4.50;3.17;;;11.70;99.90;;;;;;4969194;28;20058;-71
2021/05/26 06:37:27;;;;;;;6.50;3.60;;;11.80;99.90;;;;;;4969647;28;20125;-71
2021/05/26 06:39:52;;;;;;;4.05;3.28;;;11.80;99.90;;;;;;4969587;28;20038;-71
2021/05/26 06:42:18;;;;;;;4.30;3.65;;;11.80;99.90;;;;;;4967720;28;20039;-71
2021/05/26 06:44:44;;;;;;;10.90;4.38;;;11.80;99.90;;;;;;4969321;28;20034;-71
2021/05/26 06:47:10;;;;;;;5.18;3.38;;;11.80;99.90;;;;;;4969606;28;20497;-71
2021/05/26 06:49:36;;;;;;;5.10;3.20;;;11.80;99.90;;;;;;4968310;28;20053;-71
2021/05/26 06:52:05;;;;;;;4.35;3.03;;;11.80;99.90;;;;;;4952785;28;20435;-71
2021/05/26 06:54:31;;;;;;;5.03;2.97;;;11.80;99.90;;;;;;4969945;28;20355;-71
2021/05/26 06:56:58;;;;;;;4.10;3.13;;;11.70;99.90;;;;;;4970058;28;20413;-71
2021/05/26 06:59:23;;;;;;;7.22;3.10;;;11.80;99.90;;;;;;4969700;28;20037;-71
2021/05/26 07:01:49;;;;;;;3.55;2.83;;;11.80;99.90;;;;;;4967426;28;20428;-71
2021/05/26 07:04:15;;;;;;;6.25;3.20;;;11.80;99.90;;;;;;4969039;28;20046;-71
2021/05/26 07:06:41;;;;;;;5.75;2.70;;;11.80;99.90;;;;;;4970092;28;20026;-72
2021/05/26 07:09:06;;;;;;;4.90;2.58;;;11.80;99.90;;;;;;4969663;28;20046;-72
2021/05/26 07:11:32;;;;;;;6.38;2.65;;;11.80;99.90;;;;;;4969772;28;20438;-71
2021/05/26 07:13:58;;;;;;;4.28;2.20;;;11.90;99.90;;;;;;4968912;28;20038;-68
2021/05/26 07:16:24;;;;;;;4.47;2.33;;;11.90;99.90;;;;;;4966557;28;20578;-69
2021/05/26 07:18:51;;;;;;;5.95;2.53;;;11.90;99.90;;;;;;4968564;28;20404;-69
2021/05/26 07:21:18;;;;;;;4.30;2.40;;;12.00;99.90;;;;;;4967431;28;20030;-69
2021/05/26 07:23:44;;;;;;;5.35;2.60;;;12.00;99.90;;;;;;4965529;28;20149;-70
2021/05/26 07:26:10;;;;;;;3.97;2.53;;;12.00;99.90;;;;;;4969182;28;20031;-69
2021/05/26 07:28:37;;;;;;;4.40;2.25;;;12.00;99.90;;;;;;4969073;28;20042;-72
2021/05/26 07:31:03;;;;;;;5.43;2.10;;;12.00;99.90;;;;;;4967669;28;20019;-71
2021/05/26 07:33:30;;;;;;;7.60;3.05;;;12.00;99.90;;;;;;4967464;28;20035;-69
2021/05/26 07:35:56;;;;;;;12.93;2.72;;;12.00;99.90;;;;;;4968448;28;20082;-69
2021/05/26 07:38:21;;;;;;;11.15;3.13;;;12.00;99.90;;;;;;4967855;28;20117;-69
2021/05/26 07:40:47;;;;;;;6.15;2.58;;;12.00;99.90;;;;;;4968594;28;20631;-72
2021/05/26 07:43:13;;;;;;;6.85;2.75;;;12.00;99.90;;;;;;4968574;28;20027;-71
2021/05/26 07:45:39;;;;;;;6.75;2.67;;;12.00;99.90;;;;;;4969092;28;20181;-71
2021/05/26 07:48:05;;;;;;;6.72;2.78;;;12.00;99.90;;;;;;4967231;28;20753;-71
2021/05/26 07:50:34;;;;;;;4.70;2.03;;;12.00;99.90;;;;;;4968206;28;20474;-69
2021/05/26 07:53:01;;;;;;;5.47;2.88;;;12.10;99.90;;;;;;4968349;28;20027;-70
2021/05/26 07:55:27;;;;;;;5.82;2.67;;;12.10;99.90;;;;;;4965124;28;20030;-71
2021/05/26 07:57:53;;;;;;;6.57;2.35;;;12.10;99.90;;;;;;4966907;28;20053;-70
2021/05/26 08:00:19;;;;;;;12.20;2.75;;;12.20;99.90;;;;;;4969716;28;20117;-70
2021/05/26 08:02:48;;;;;;;7.07;3.00;;;12.10;99.90;;;;;;4968534;28;20476;-70
2021/05/26 08:05:16;;;;;;;6.45;2.15;;;12.10;99.90;;;;;;4968877;28;20052;-70
2021/05/26 08:07:42;;;;;;;9.88;2.85;;;12.00;99.90;;;;;;4966040;28;20284;-70
2021/05/26 08:10:08;;;;;;;7.47;2.22;;;12.00;99.90;;;;;;4967097;28;20045;-70
2021/05/26 08:12:34;;;;;;;10.65;2.88;;;12.00;99.90;;;;;;4969219;28;20472;-70
2021/05/26 08:15:00;;;;;;;10.13;3.15;;;12.10;99.90;;;;;;4967157;28;20127;-71
2021/05/26 08:17:26;;;;;;;6.88;2.60;;;12.00;99.90;;;;;;4968368;28;20104;-70
2021/05/26 08:19:52;;;;;;;6.03;2.78;;;12.10;99.90;;;;;;4966502;28;20030;-71
2021/05/26 08:22:17;;;;;;;8.55;2.35;;;12.10;99.90;;;;;;4966210;28;20385;-70
2021/05/26 08:24:43;;;;;;;14.07;2.72;;;12.10;99.90;;;;;;4966632;28;20573;-70
2021/05/26 08:27:09;;;;;;;10.35;2.70;;;12.20;99.90;;;;;;4968457;28;20042;-71
2021/05/26 08:29:35;;;;;;;8.85;2.70;;;12.20;99.90;;;;;;4966786;28;20043;-70
2021/05/26 08:32:02;;;;;;;6.85;2.60;;;12.20;99.90;;;;;;4967141;28;20413;-71
2021/05/26 08:34:28;;;;;;;6.68;2.88;;;12.10;99.90;;;;;;4968592;28;20436;-70
2021/05/26 08:36:55;;;;;;;6.65;2.88;;;12.10;99.90;;;;;;4965371;28;20129;-71
2021/05/26 08:39:21;;;;;;;6.80;2.40;;;12.00;99.90;;;;;;4967449;28;20502;-71
2021/05/26 08:41:51;;;;;;;10.20;2.75;;;12.00;99.90;;;;;;4968242;28;20026;-70
2021/05/26 08:44:17;;;;;;;5.80;2.10;;;12.00;99.90;;;;;;4967848;28;20037;-70
2021/05/26 08:46:43;;;;;;;4.28;2.10;;;12.00;99.90;;;;;;4967847;28;20034;-71
2021/05/26 08:49:12;;;;;;;6.60;2.83;;;12.00;99.90;;;;;;4965805;28;20058;-70
2021/05/26 08:51:38;;;;;;;5.97;2.55;;;12.00;99.90;;;;;;4967482;28;20026;-71
2021/05/26 08:54:04;;;;;;;6.15;2.65;;;12.00;99.90;;;;;;4972674;28;20409;-70
2021/05/26 08:56:30;;;;;;;5.70;2.25;;;12.00;99.90;;;;;;4974549;28;20500;-71
2021/05/26 08:58:56;;;;;;;8.50;2.60;;;12.00;99.90;;;;;;4973872;28;20042;-70
2021/05/26 09:01:22;;;;;;;5.90;2.60;;;12.00;99.90;;;;;;4972704;28;20042;-70
2021/05/26 09:03:52;;;;;;;8.63;2.78;;;12.00;99.90;;;;;;4974671;28;20634;-71
2021/05/26 09:06:18;;;;;;;7.78;2.50;;;12.00;99.90;;;;;;4973992;28;20386;-70
2021/05/26 09:08:49;;;;;;;7.72;2.47;;;12.00;99.90;;;;;;4980688;28;20076;-71
2021/05/26 09:11:18;;;;;;;6.63;2.40;;;12.00;99.90;;;;;;4974667;28;20037;-70
2021/05/26 09:13:45;;;;;;;5.88;2.95;;;12.00;99.90;;;;;;4974443;28;20026;-71
2021/05/26 09:16:22;;;;;;;4.63;2.67;;;12.00;99.90;;;;;;4972904;28;20037;-71
2021/05/26 09:19:06;;;;;;;7.43;2.50;;;12.00;99.90;;;;;;4970538;28;20068;-70
2021/05/26 09:21:34;;;;;;;6.30;2.42;;;12.10;99.90;;;;;;4972661;28;20142;-70
2021/05/26 09:24:00;;;;;;;7.47;2.28;;;12.10;99.90;;;;;;4973533;28;20514;-70
2021/05/26 09:26:49;;;;;;;4.65;1.80;;;12.20;99.90;;;;;;4974529;28;20073;-70
2021/05/26 09:29:22;;;;;;;4.60;2.38;;;12.20;99.90;;;;;;4973199;28;20057;-70
2021/05/26 09:31:48;;;;;;;5.63;2.10;;;12.20;99.90;;;;;;4972302;28;20399;-71
2021/05/26 09:34:35;;;;;;;7.80;2.65;;;12.40;99.90;;;;;;4972615;28;20026;-70
2021/05/26 09:37:06;;;;;;;7.65;2.33;;;12.40;99.90;;;;;;4971617;28;20062;-70
2021/05/26 09:39:54;;;;;;;8.13;2.45;;;12.50;99.90;;;;;;4974142;28;20524;-71
2021/05/26 09:42:39;;;;;;;7.70;2.63;;;12.60;99.90;;;;;;4973793;28;20033;-71
2021/05/26 09:45:27;;;;;;;36.17;10.65;;;12.80;99.90;;;;;;4974437;28;20037;-71
2021/05/26 09:47:54;;;;;;;7.85;2.45;;;13.10;99.90;;;;;;4973833;28;20546;-70
2021/05/26 09:50:25;;;;;;;5.80;1.90;;;13.00;99.90;;;;;;4973157;28;20023;-70
2021/05/26 09:53:10;;;;;;;3.10;1.65;;;13.00;99.90;;;;;;4973159;28;20035;-70
2021/05/26 09:55:41;;;;;;;8.23;2.20;;;12.90;99.90;;;;;;4973568;28;20026;-70
2021/05/26 09:58:09;;;;;;;3.40;1.70;;;13.00;99.90;;;;;;4973245;28;20077;-71
2021/05/26 10:00:36;;;;;;;4.97;1.58;;;12.90;99.90;;;;;;4973778;28;20376;-70
2021/05/26 10:03:03;;;;;;;5.25;1.70;;;13.00;99.90;;;;;;4974105;28;20474;-71
2021/05/26 10:05:29;;;;;;;4.70;1.60;;;13.10;99.90;;;;;;4969061;28;20042;-71
2021/05/26 10:07:57;;;;;;;5.70;1.80;;;13.10;99.90;;;;;;4969160;28;20042;-70
2021/05/26 10:10:27;;;;;;;4.53;1.65;;;13.00;99.90;;;;;;4976882;28;20048;-70
2021/05/26 10:13:03;;;;;;;4.57;1.65;;;13.00;99.90;;;;;;4970839;28;20390;-70
2021/05/26 10:15:30;;;;;;;3.72;2.00;;;12.90;99.90;;;;;;4969973;28;20073;-70
2021/05/26 10:17:58;;;;;;;6.15;1.85;;;12.90;99.90;;;;;;4970257;28;20090;-71
2021/05/26 10:20:26;;;;;;;1.83;1.30;;;12.90;99.90;;;;;;4970680;28;20050;-70
2021/05/26 10:22:54;;;;;;;1.95;1.35;;;12.80;99.90;;;;;;4968624;28;20202;-71
2021/05/26 10:25:21;;;;;;;3.85;1.33;;;12.80;99.90;;;;;;4967677;28;20050;-70
2021/05/26 10:27:53;;;;;;;2.60;1.20;;;12.90;99.90;;;;;;4968727;28;20538;-70
2021/05/26 10:30:24;;;;;;;2.00;1.23;;;12.90;99.90;;;;;;4970193;28;20046;-70
2021/05/26 10:33:04;;;;;;;2.13;1.45;;;13.00;99.90;;;;;;4968253;28;20019;-70
2021/05/26 10:35:49;;;;;;;3.10;1.48;;;13.20;99.90;;;;;;4968163;28;20045;-70
2021/05/26 10:38:15;;;;;;;2.30;1.65;;;13.30;99.90;;;;;;4969740;28;20632;-70
2021/05/26 10:40:43;;;;;;;3.88;1.70;;;13.50;99.90;;;;;;4970308;28;20030;-70
2021/05/26 10:43:23;;;;;;;4.47;1.80;;;13.70;99.90;;;;;;4969549;28;20031;-70
2021/05/26 10:45:52;;;;;;;2.63;1.80;;;13.70;99.90;;;;;;4970443;28;20027;-70
2021/05/26 10:48:44;;;;;;;3.25;1.92;;;13.80;99.90;;;;;;4969252;28;20038;-69
2021/05/26 10:51:13;;;;;;;5.18;2.05;;;14.00;99.90;;;;;;4968925;28;20084;-70
2021/05/26 10:53:43;;;;;;;4.07;2.03;;;14.00;99.90;;;;;;4970422;28;20117;-70
2021/05/26 10:56:37;;;;;;;3.60;1.77;;;14.10;99.90;;;;;;4969180;28;20112;-70
2021/05/26 10:59:15;;;;;;;4.47;2.08;;;14.20;99.90;;;;;;4968534;28;20549;-70
2021/05/26 11:02:03;;;;;;;2.20;2.00;;;14.10;99.90;;;;;;4968235;28;20053;-71
2021/05/26 11:04:30;;;;;;;2.38;1.52;;;14.30;99.90;;;;;;4969311;28;20058;-70
2021/05/26 11:07:15;;;;;;;1.90;1.42;;;14.40;99.90;;;;;;4970045;28;20060;-70
2021/05/26 11:09:56;;;;;;;2.58;1.48;;;14.60;99.90;;;;;;4969337;28;20034;-70
2021/05/26 11:12:23;;;;;;;2.55;1.55;;;14.70;99.90;;;;;;4969660;28;20529;-71
2021/05/26 11:14:53;;;;;;;2.53;1.60;;;14.90;99.90;;;;;;4968135;28;20027;-70
2021/05/26 11:17:31;;;;;;;3.97;1.88;;;14.90;99.90;;;;;;4967234;28;20062;-70
2021/05/26 11:20:12;;;;;;;2.92;1.30;;;14.90;99.90;;;;;;4969304;28;20092;-69
2021/05/26 11:22:38;;;;;;;2.55;1.35;;;15.10;99.90;;;;;;4969408;28;20058;-70
2021/05/26 11:25:07;;;;;;;1.73;1.20;;;15.20;99.90;;;;;;4968620;28;20046;-70
2021/05/26 11:27:33;;;;;;;1.83;1.00;;;15.30;99.90;;;;;;4969552;28;20043;-70
2021/05/26 11:30:03;;;;;;;1.38;1.20;;;15.30;99.90;;;;;;4967200;28;20104;-70
2021/05/26 11:32:29;;;;;;;1.23;0.85;;;15.40;99.90;;;;;;4967207;28;20549;-70
2021/05/26 11:35:00;;;;;;;3.95;1.75;;;15.50;99.90;;;;;;4969085;28;20209;-70
2021/05/26 11:37:37;;;;;;;1.60;0.80;;;15.70;99.90;;;;;;4967653;28;20090;-70
2021/05/26 11:40:26;;;;;;;1.65;1.00;;;15.50;99.90;;;;;;4968498;28;20504;-71
2021/05/26 11:42:53;;;;;;;3.22;1.90;;;15.40;99.90;;;;;;4969157;28;20120;-70
2021/05/26 11:45:21;;;;;;;2.15;0.98;;;15.20;99.90;;;;;;4967684;28;20033;-70
2021/05/26 11:47:59;;;;;;;1.13;0.80;;;15.00;99.90;;;;;;4968388;28;20729;-70
2021/05/26 11:50:29;;;;;;;1.35;0.88;;;15.00;99.90;;;;;;4969196;28;20034;-70
2021/05/26 11:53:00;;;;;;;1.40;0.90;;;15.00;99.90;;;;;;4969366;28;20106;-70
2021/05/26 11:55:27;;;;;;;0.77;0.70;;;14.90;99.90;;;;;;4968121;28;20050;-70
2021/05/26 11:57:54;;;;;;;0.95;0.70;;;15.10;99.90;;;;;;4969097;28;20418;-70
2021/05/26 12:00:29;;;;;;;0.55;0.52;;;15.10;99.90;;;;;;4968282;28;20117;-70
2021/05/26 12:03:09;;;;;;;0.70;0.70;;;15.00;99.90;;;;;;4968121;28;20639;-70
2021/05/26 12:05:35;;;;;;;;;;;14.90;99.90;;;;;;4969087;28;20100;-69
2021/05/26 12:08:01;;;;;;;0.60;0.60;;;14.80;99.90;;;;;;4968883;28;19914;-69
2021/05/26 12:10:28;;;;;;;1.05;0.82;;;14.60;99.90;;;;;;4968147;28;20500;-69
2021/05/26 12:13:02;;;;;;;0.68;0.50;;;14.60;99.90;;;;;;4968814;28;20038;-70
2021/05/26 12:15:28;;;;;;;1.10;0.80;;;14.50;99.90;;;;;;4968210;28;20105;-70
2021/05/26 12:17:57;;;;;;;2.38;1.70;;;14.50;99.90;;;;;;4968270;28;20084;-70
2021/05/26 12:20:24;;;;;;;0.88;0.60;;;14.40;99.90;;;;;;4968050;28;20418;-70
2021/05/26 12:22:51;;;;;;;1.63;0.98;;;14.20;99.90;;;;;;4967862;28;20031;-69
2021/05/26 12:25:18;;;;;;;0.75;0.68;;;14.10;99.90;;;;;;4968187;28;20109;-70
2021/05/26 12:27:46;;;;;;;1.73;0.88;;;14.10;99.90;;;;;;4967894;28;20363;-69
2021/05/26 12:30:24;;;;;;;2.28;0.73;;;14.10;99.90;;;;;;4967798;28;20045;-70
2021/05/26 12:32:52;;;;;;;1.38;0.90;;;14.10;99.90;;;;;;4967761;28;20026;-70
2021/05/26 12:35:22;;;;;;;0.82;0.80;;;14.10;99.90;;;;;;4965583;28;20498;-69
2021/05/26 12:37:50;;;;;;;0.90;0.70;;;14.00;99.90;;;;;;4968353;28;20049;-71
2021/05/26 12:40:37;;;;;;;1.65;1.02;;;13.90;99.90;;;;;;4967832;28;20022;-69
2021/05/26 12:43:04;;;;;;;1.73;1.35;;;13.70;99.90;;;;;;4968241;28;20116;-70
2021/05/26 12:45:32;;;;;;;4.75;1.60;;;13.80;99.90;;;;;;4967565;28;20088;-69
2021/05/26 12:48:10;;;;;;;2.33;1.50;;;13.70;99.90;;;;;;4967491;28;20037;-69
2021/05/26 12:50:43;;;;;;;2.03;1.40;;;13.80;99.90;;;;;;4966592;28;20407;-69
2021/05/26 12:53:15;;;;;;;2.00;1.20;;;13.50;99.90;;;;;;4967327;28;20035;-69